Herbster, Wisconsin
Current Conditions -  °F | °C
As of 1:53 PM on Thursday 27 Nov 2014 (Local Time) from KASX Reporting Station
Clear Clear  
Wind Chill: -1°   Ceiling: Unl
Heat Index: 10°   Visibility: 10mi
Dew Point:   Wind: 7mph
Humidity: 67%   Direction: 260°W
Pressure: 30.41"   Gusts: NA
Location:  46.83°N, 91.26°W
Report Text: KASX 271953Z AUTO 26006KT 10SM CLR M12/M17 A3041 RMK AO2 SLP319 T11221172
Loading
Personal Weather Stations






























Interactive Weather Map New forecast layout! Learn more

10-Day Weather Forecast

Advertisements
Track Severe Weather on mobile